createdAt,value
2018-05-31T00:00:33.379Z,22.50
2018-05-31T00:01:33.354Z,22.50
2018-05-31T00:02:33.339Z,22.54
2018-05-31T00:03:33.318Z,22.50
2018-05-31T00:04:33.289Z,22.47
2018-05-31T00:05:33.262Z,22.48
2018-05-31T00:06:33.255Z,22.45
2018-05-31T00:07:33.230Z,22.43
2018-05-31T00:08:33.198Z,22.47
2018-05-31T00:09:33.175Z,22.47
2018-05-31T00:10:33.159Z,22.44
2018-05-31T00:11:33.135Z,22.51
2018-05-31T00:12:33.110Z,22.54
2018-05-31T00:13:33.096Z,22.45
2018-05-31T00:14:33.066Z,22.48
2018-05-31T00:15:33.042Z,22.48
2018-05-31T00:16:33.018Z,22.36
2018-05-31T00:17:33.004Z,22.41
2018-05-31T00:18:32.972Z,22.38
2018-05-31T00:19:32.954Z,22.36
2018-05-31T00:20:32.937Z,22.32
2018-05-31T00:21:32.907Z,22.30
2018-05-31T00:22:32.891Z,22.28
2018-05-31T00:23:32.859Z,22.32
2018-05-31T00:24:32.849Z,22.28
2018-05-31T00:25:32.816Z,22.32
2018-05-31T00:26:32.804Z,22.29
2018-05-31T00:27:32.774Z,22.25
2018-05-31T00:28:32.752Z,22.30
2018-05-31T00:29:32.734Z,22.28
2018-05-31T00:30:32.707Z,22.23
2018-05-31T00:31:32.696Z,22.22
2018-05-31T00:32:32.666Z,22.15
2018-05-31T00:33:32.634Z,22.15
2018-05-31T00:34:32.621Z,22.17
2018-05-31T00:35:32.592Z,22.17
2018-05-31T00:36:32.579Z,22.14
2018-05-31T00:37:32.545Z,22.02
2018-05-31T00:38:32.529Z,22.04
2018-05-31T00:39:32.503Z,22.06
2018-05-31T00:40:32.481Z,22.04
2018-05-31T00:41:32.456Z,22.06
2018-05-31T00:42:32.437Z,22.07
2018-05-31T00:43:32.417Z,22.02
2018-05-31T00:44:32.393Z,21.96
2018-05-31T00:45:32.370Z,21.99
2018-05-31T00:46:32.354Z,21.95
2018-05-31T00:47:32.325Z,21.96
2018-05-31T00:48:32.300Z,21.93
2018-05-31T00:49:32.282Z,21.95
2018-05-31T00:50:32.249Z,21.88
2018-05-31T00:51:32.231Z,21.76
2018-05-31T00:52:32.214Z,21.77
2018-05-31T00:53:32.200Z,21.75
2018-05-31T00:54:32.163Z,21.76
2018-05-31T00:55:32.141Z,21.67
2018-05-31T00:56:32.134Z,21.76
2018-05-31T00:57:32.090Z,21.77
2018-05-31T00:58:32.079Z,21.76
2018-05-31T00:59:32.050Z,21.66
2018-05-31T01:00:32.032Z,21.76
2018-05-31T01:01:32.004Z,21.75
2018-05-31T01:02:31.987Z,21.76
2018-05-31T01:03:31.961Z,21.77
2018-05-31T01:04:31.936Z,21.77
2018-05-31T01:05:31.915Z,21.76
2018-05-31T01:06:31.897Z,21.77
2018-05-31T01:07:31.873Z,21.79
2018-05-31T01:08:31.848Z,21.80
2018-05-31T01:09:31.826Z,21.73
2018-05-31T01:10:31.800Z,21.75
2018-05-31T01:11:31.779Z,21.64
2018-05-31T01:12:31.759Z,21.66
2018-05-31T01:13:31.739Z,21.58
2018-05-31T01:14:31.717Z,21.55
2018-05-31T01:15:31.685Z,21.58
2018-05-31T01:16:31.671Z,21.60
2018-05-31T01:17:31.647Z,21.46
2018-05-31T01:18:31.632Z,21.48
2018-05-31T01:19:31.602Z,21.48
2018-05-31T01:20:31.575Z,21.46
2018-05-31T01:21:31.550Z,21.46
2018-05-31T01:22:31.531Z,21.57
2018-05-31T01:23:31.505Z,21.43
2018-05-31T01:24:31.486Z,21.45
2018-05-31T01:25:31.458Z,21.48
2018-05-31T01:26:31.440Z,21.46
2018-05-31T01:27:31.411Z,21.42
2018-05-31T01:28:31.404Z,21.48
2018-05-31T01:29:31.365Z,21.46
2018-05-31T01:30:31.351Z,21.50
2018-05-31T01:31:31.324Z,21.55
2018-05-31T01:32:31.302Z,21.45
2018-05-31T01:33:31.293Z,21.61
2018-05-31T01:34:31.259Z,21.66
2018-05-31T01:35:31.236Z,21.60
2018-05-31T01:36:31.222Z,21.79
2018-05-31T01:37:31.184Z,21.76
2018-05-31T01:38:31.169Z,21.76
2018-05-31T01:39:31.139Z,21.76
2018-05-31T01:40:31.124Z,21.76
2018-05-31T01:41:31.094Z,21.69
2018-05-31T01:42:31.079Z,21.60
2018-05-31T01:43:31.056Z,21.62
2018-05-31T01:44:31.031Z,21.67
2018-05-31T01:45:31.008Z,21.66
2018-05-31T01:46:30.990Z,21.64
2018-05-31T01:47:30.956Z,21.66
2018-05-31T01:48:30.942Z,21.69
2018-05-31T01:49:30.912Z,21.67
2018-05-31T01:50:30.895Z,21.67
2018-05-31T01:51:30.868Z,21.61
2018-05-31T01:52:30.846Z,21.64
2018-05-31T01:53:30.829Z,21.61
2018-05-31T01:54:30.804Z,21.70
2018-05-31T01:55:30.775Z,21.61
2018-05-31T01:56:30.761Z,21.73
2018-05-31T01:57:30.737Z,21.66
2018-05-31T01:58:30.707Z,21.64
2018-05-31T01:59:30.690Z,21.69
2018-05-31T02:00:30.663Z,21.67
2018-05-31T02:01:30.637Z,21.64
2018-05-31T02:02:30.622Z,21.60
2018-05-31T02:03:30.600Z,21.50
2018-05-31T02:04:30.580Z,21.46
2018-05-31T02:05:30.557Z,21.50
2018-05-31T02:06:30.530Z,21.37
2018-05-31T02:07:30.510Z,21.46
2018-05-31T02:08:30.479Z,21.42
2018-05-31T02:09:30.460Z,21.43
2018-05-31T02:10:30.440Z,21.39
2018-05-31T02:11:30.415Z,21.40
2018-05-31T02:12:30.388Z,21.39
2018-05-31T02:13:30.370Z,21.40
2018-05-31T02:14:30.343Z,21.36
2018-05-31T02:15:30.328Z,21.48
2018-05-31T02:16:30.307Z,21.46
2018-05-31T02:17:30.274Z,21.50
2018-05-31T02:18:30.255Z,21.51
2018-05-31T02:19:30.233Z,21.46
2018-05-31T02:20:30.205Z,21.50
2018-05-31T02:21:30.189Z,21.48
2018-05-31T02:22:30.163Z,21.46
2018-05-31T02:23:30.140Z,21.43
2018-05-31T02:24:30.123Z,21.48
2018-05-31T02:25:30.088Z,21.43
2018-05-31T02:26:30.080Z,21.40
2018-05-31T02:27:30.049Z,21.35
2018-05-31T02:28:30.024Z,21.39
2018-05-31T02:29:29.998Z,21.33
2018-05-31T02:30:29.992Z,21.32
2018-05-31T02:31:29.960Z,21.27
2018-05-31T02:32:29.929Z,21.29
2018-05-31T02:33:29.906Z,21.30
2018-05-31T02:34:29.886Z,21.21
2018-05-31T02:35:29.865Z,21.27
2018-05-31T02:36:29.841Z,21.30
2018-05-31T02:37:29.823Z,21.35
2018-05-31T02:38:29.801Z,21.39
2018-05-31T02:39:29.774Z,21.33
2018-05-31T02:40:29.745Z,21.27
2018-05-31T02:41:29.723Z,21.32
2018-05-31T02:42:29.703Z,21.36
2018-05-31T02:43:29.689Z,21.36
2018-05-31T02:44:29.653Z,21.35
2018-05-31T02:45:29.630Z,21.39
2018-05-31T02:46:29.612Z,21.25
2018-05-31T02:47:29.589Z,21.32
2018-05-31T02:48:29.563Z,21.35
2018-05-31T02:49:29.538Z,21.36
2018-05-31T02:50:29.523Z,21.36
2018-05-31T02:51:29.504Z,21.37
2018-05-31T02:52:29.473Z,21.36
2018-05-31T02:53:29.455Z,21.37
2018-05-31T02:54:29.424Z,21.37
2018-05-31T02:55:29.411Z,21.40
2018-05-31T02:56:29.398Z,21.39
2018-05-31T02:57:29.359Z,21.39
2018-05-31T02:58:29.338Z,21.33
2018-05-31T02:59:29.318Z,21.33
2018-05-31T03:00:29.287Z,21.27
2018-05-31T03:01:29.271Z,21.27
2018-05-31T03:02:29.289Z,21.33
2018-05-31T03:03:29.273Z,21.40
2018-05-31T03:04:29.193Z,21.42
2018-05-31T03:05:29.177Z,21.37
2018-05-31T03:06:29.159Z,21.37
2018-05-31T03:07:29.123Z,21.36
2018-05-31T03:08:29.108Z,21.37
2018-05-31T03:09:29.078Z,21.35
2018-05-31T03:10:29.062Z,21.42
2018-05-31T03:11:29.034Z,21.39
2018-05-31T03:12:29.016Z,21.42
2018-05-31T03:13:28.988Z,21.30
2018-05-31T03:14:28.967Z,21.27
2018-05-31T03:15:28.944Z,21.22
2018-05-31T03:16:28.926Z,21.15
2018-05-31T03:17:28.895Z,21.14
2018-05-31T03:18:28.875Z,21.11
2018-05-31T03:19:28.848Z,21.06
2018-05-31T03:20:28.833Z,21.05
2018-05-31T03:21:28.801Z,21.02
2018-05-31T03:22:28.787Z,21.00
2018-05-31T03:23:28.767Z,21.05
2018-05-31T03:24:28.739Z,21.00
2018-05-31T03:25:28.712Z,20.95
2018-05-31T03:26:28.692Z,20.92
2018-05-31T03:27:28.663Z,20.90
2018-05-31T03:28:28.650Z,21.03
2018-05-31T03:29:28.621Z,20.99
2018-05-31T03:30:28.600Z,21.02
2018-05-31T03:31:28.577Z,21.06
2018-05-31T03:32:28.559Z,21.07
2018-05-31T03:33:28.526Z,21.12
2018-05-31T03:34:28.512Z,21.17
2018-05-31T03:35:28.551Z,21.15
2018-05-31T03:36:28.461Z,21.07
2018-05-31T03:37:28.435Z,21.06
2018-05-31T03:38:28.416Z,21.11
2018-05-31T03:39:28.393Z,21.06
2018-05-31T03:40:28.367Z,21.06
2018-05-31T03:41:28.346Z,21.03
2018-05-31T03:42:28.325Z,21.06
2018-05-31T03:43:28.301Z,20.99
2018-05-31T03:44:28.271Z,20.99
2018-05-31T03:45:28.250Z,21.05
2018-05-31T03:46:28.239Z,21.07
2018-05-31T03:47:28.246Z,20.93
2018-05-31T03:48:28.178Z,20.95
2018-05-31T03:49:28.158Z,20.88
2018-05-31T03:50:28.137Z,20.92
2018-05-31T03:51:28.116Z,21.02
2018-05-31T03:52:28.093Z,21.02
2018-05-31T03:53:28.066Z,21.05
2018-05-31T03:54:28.047Z,21.07
2018-05-31T03:55:28.020Z,21.07
2018-05-31T03:56:27.999Z,20.99
2018-05-31T03:57:27.972Z,21.06
2018-05-31T03:58:27.953Z,21.09
2018-05-31T03:59:27.925Z,21.11
2018-05-31T04:00:27.911Z,21.18
2018-05-31T04:01:27.890Z,21.17
2018-05-31T04:02:27.862Z,21.21
2018-05-31T04:03:27.841Z,21.32
2018-05-31T04:04:27.814Z,21.29
2018-05-31T04:05:27.794Z,21.35
2018-05-31T04:06:27.764Z,21.45
2018-05-31T04:07:27.754Z,21.33
2018-05-31T04:08:27.715Z,21.45
2018-05-31T04:09:27.704Z,21.39
2018-05-31T04:10:27.673Z,21.40
2018-05-31T04:11:27.653Z,21.50
2018-05-31T04:12:27.627Z,21.45
2018-05-31T04:13:27.602Z,21.48
2018-05-31T04:14:27.587Z,21.42
2018-05-31T04:15:27.564Z,21.33
2018-05-31T04:16:27.537Z,21.30
2018-05-31T04:17:27.515Z,21.36
2018-05-31T04:18:27.493Z,21.46
2018-05-31T04:19:27.468Z,21.48
2018-05-31T04:20:27.448Z,21.37
2018-05-31T04:21:27.419Z,21.29
2018-05-31T04:22:27.404Z,21.27
2018-05-31T04:23:27.378Z,21.18
2018-05-31T04:24:27.358Z,21.05
2018-05-31T04:25:27.328Z,21.07
2018-05-31T04:26:27.312Z,21.05
2018-05-31T04:27:27.283Z,21.07
2018-05-31T04:28:27.268Z,20.99
2018-05-31T04:29:27.236Z,21.06
2018-05-31T04:30:27.214Z,21.03
2018-05-31T04:31:27.193Z,21.11
2018-05-31T04:32:27.167Z,21.05
2018-05-31T04:33:27.152Z,21.15
2018-05-31T04:34:27.129Z,21.06
2018-05-31T04:35:27.095Z,21.06
2018-05-31T04:36:27.085Z,21.11
2018-05-31T04:37:27.060Z,21.12
2018-05-31T04:38:27.028Z,21.15
2018-05-31T04:39:27.015Z,21.22
2018-05-31T04:40:26.992Z,21.21
2018-05-31T04:41:26.975Z,21.30
2018-05-31T04:42:26.962Z,21.32
2018-05-31T04:43:26.918Z,21.37
2018-05-31T04:44:26.892Z,21.33
2018-05-31T04:45:26.868Z,21.39
2018-05-31T04:46:26.852Z,21.39
2018-05-31T04:47:26.827Z,21.50
2018-05-31T04:48:26.806Z,21.45
2018-05-31T04:49:26.775Z,21.50
2018-05-31T04:50:26.756Z,21.45
2018-05-31T04:51:26.748Z,21.55
2018-05-31T04:52:26.705Z,21.50
2018-05-31T04:53:27.065Z,21.54
2018-05-31T04:54:26.761Z,21.64
2018-05-31T04:55:26.867Z,21.72
2018-05-31T04:56:26.726Z,21.73
2018-05-31T04:57:26.656Z,21.66
2018-05-31T04:58:26.581Z,21.69
2018-05-31T04:59:26.549Z,21.82
2018-05-31T05:00:26.532Z,21.61
2018-05-31T05:01:26.522Z,21.67
2018-05-31T05:02:26.480Z,21.66
2018-05-31T05:03:26.459Z,21.64
2018-05-31T05:04:26.441Z,21.61
2018-05-31T05:05:26.415Z,21.72
2018-05-31T05:06:26.395Z,21.64
2018-05-31T05:07:26.359Z,21.77
2018-05-31T05:08:26.346Z,21.79
2018-05-31T05:09:26.313Z,21.91
2018-05-31T05:10:26.299Z,21.92
2018-05-31T05:11:26.286Z,21.98
2018-05-31T05:12:26.253Z,21.96
2018-05-31T05:13:26.224Z,21.99
2018-05-31T05:14:26.204Z,22.00
2018-05-31T05:15:26.183Z,21.99
2018-05-31T05:16:26.165Z,21.95
2018-05-31T05:17:26.136Z,21.99
2018-05-31T05:18:26.120Z,22.08
2018-05-31T05:19:26.092Z,22.10
2018-05-31T05:20:26.062Z,22.17
2018-05-31T05:21:26.052Z,22.25
2018-05-31T05:22:26.021Z,22.22
2018-05-31T05:23:25.994Z,22.29
2018-05-31T05:24:25.975Z,22.26
2018-05-31T05:25:25.951Z,22.39
2018-05-31T05:26:25.936Z,22.36
2018-05-31T05:27:25.901Z,22.36
2018-05-31T05:28:25.889Z,22.45
2018-05-31T05:29:25.916Z,22.43
2018-05-31T05:30:25.843Z,22.45
2018-05-31T05:31:25.818Z,22.48
2018-05-31T05:32:25.791Z,22.54
2018-05-31T05:33:25.772Z,22.50
2018-05-31T05:34:25.751Z,22.51
2018-05-31T05:35:25.723Z,22.45
2018-05-31T05:36:25.708Z,22.45
2018-05-31T05:37:25.681Z,22.48
2018-05-31T05:38:25.716Z,22.44
2018-05-31T05:39:25.628Z,22.48
2018-05-31T05:40:25.613Z,22.44
2018-05-31T05:41:25.586Z,22.43
2018-05-31T05:42:25.562Z,22.43
2018-05-31T05:43:25.557Z,22.41
2018-05-31T05:44:25.563Z,22.39
2018-05-31T05:45:25.492Z,22.41
2018-05-31T05:46:25.479Z,22.32
2018-05-31T05:47:25.448Z,22.29
2018-05-31T05:48:25.431Z,22.29
2018-05-31T05:49:25.401Z,22.23
2018-05-31T05:50:25.389Z,22.35
2018-05-31T05:51:25.359Z,22.35
2018-05-31T05:52:25.335Z,22.30
2018-05-31T05:53:25.314Z,22.38
2018-05-31T05:54:25.291Z,22.41
2018-05-31T05:55:25.272Z,22.47
2018-05-31T05:56:25.316Z,22.41
2018-05-31T05:57:25.228Z,22.45
2018-05-31T05:58:25.193Z,22.50
2018-05-31T05:59:25.188Z,22.43
2018-05-31T06:00:25.171Z,22.55
2018-05-31T06:01:25.126Z,22.57
2018-05-31T06:02:25.114Z,22.63
2018-05-31T06:03:25.092Z,22.70
2018-05-31T06:04:25.064Z,22.83
2018-05-31T06:05:25.041Z,22.83
2018-05-31T06:06:25.023Z,22.87
2018-05-31T06:07:24.995Z,22.90
2018-05-31T06:08:24.975Z,22.93
2018-05-31T06:09:24.956Z,22.84
2018-05-31T06:10:24.976Z,23.02
2018-05-31T06:11:24.913Z,23.00
2018-05-31T06:12:24.890Z,23.00
2018-05-31T06:13:24.860Z,23.05
2018-05-31T06:14:24.845Z,23.12
2018-05-31T06:15:24.819Z,23.13
2018-05-31T06:16:24.878Z,23.18
2018-05-31T06:17:24.776Z,23.15
2018-05-31T06:18:24.751Z,23.34
2018-05-31T06:19:24.734Z,23.28
2018-05-31T06:20:24.704Z,23.32
2018-05-31T06:21:24.684Z,23.48
2018-05-31T06:22:24.660Z,23.44
2018-05-31T06:23:24.635Z,23.56
2018-05-31T06:24:24.625Z,23.69
2018-05-31T06:25:24.600Z,23.69
2018-05-31T06:26:24.637Z,23.71
2018-05-31T06:27:24.541Z,23.77
2018-05-31T06:28:24.519Z,23.78
2018-05-31T06:29:24.508Z,23.83
2018-05-31T06:30:24.703Z,23.83
2018-05-31T06:31:24.468Z,23.69
2018-05-31T06:32:24.435Z,23.58
2018-05-31T06:33:24.414Z,23.51
2018-05-31T06:34:24.398Z,23.48
2018-05-31T06:35:24.368Z,23.61
2018-05-31T06:36:24.358Z,23.59
2018-05-31T06:37:24.382Z,23.61
2018-05-31T06:38:24.302Z,23.58
2018-05-31T06:39:24.279Z,23.61
2018-05-31T06:40:24.254Z,23.61
2018-05-31T06:41:24.245Z,23.61
2018-05-31T06:42:24.214Z,23.68
2018-05-31T06:43:24.195Z,23.69
2018-05-31T06:44:24.167Z,23.80
2018-05-31T06:45:24.155Z,23.81
2018-05-31T06:46:24.126Z,23.80
2018-05-31T06:47:24.105Z,23.95
2018-05-31T06:48:24.077Z,23.92
2018-05-31T06:49:24.062Z,23.99
2018-05-31T06:50:24.032Z,23.99
2018-05-31T06:51:24.014Z,24.02
2018-05-31T06:52:23.991Z,24.06
2018-05-31T06:53:23.974Z,24.16
2018-05-31T06:54:23.979Z,24.21
2018-05-31T06:55:23.923Z,24.17
2018-05-31T06:56:23.916Z,24.18
2018-05-31T06:57:23.877Z,24.17
2018-05-31T06:58:23.862Z,24.24
2018-05-31T06:59:23.833Z,24.24
2018-05-31T07:00:23.815Z,24.33
2018-05-31T07:01:23.796Z,24.35
2018-05-31T07:02:23.775Z,24.28
2018-05-31T07:03:23.745Z,24.24
2018-05-31T07:04:23.733Z,24.17
2018-05-31T07:05:23.701Z,24.17
2018-05-31T07:06:23.684Z,24.06
2018-05-31T07:07:23.663Z,24.01
2018-05-31T07:08:23.637Z,23.98
2018-05-31T07:09:23.615Z,23.92
2018-05-31T07:10:23.594Z,23.93
2018-05-31T07:11:23.563Z,23.99
2018-05-31T07:12:23.547Z,24.05
2018-05-31T07:13:23.560Z,23.99
2018-05-31T07:14:23.527Z,24.06
2018-05-31T07:15:23.520Z,24.01
2018-05-31T07:16:23.492Z,24.01
2018-05-31T07:17:23.453Z,24.06
2018-05-31T07:18:23.439Z,24.23
2018-05-31T07:19:23.407Z,24.20
2018-05-31T07:20:23.406Z,24.17
2018-05-31T07:21:23.371Z,24.29
2018-05-31T07:22:23.330Z,24.21
2018-05-31T07:23:23.302Z,24.32
2018-05-31T07:24:23.279Z,24.29
2018-05-31T07:25:23.257Z,24.33
2018-05-31T07:26:23.235Z,24.35
2018-05-31T07:27:23.211Z,24.45
2018-05-31T07:28:23.191Z,24.40
2018-05-31T07:29:23.167Z,24.29
2018-05-31T07:30:23.142Z,24.39
2018-05-31T07:31:23.128Z,24.54
2018-05-31T07:32:23.118Z,24.47
2018-05-31T07:33:23.126Z,24.35
2018-05-31T07:34:23.094Z,24.35
2018-05-31T07:35:23.067Z,24.45
2018-05-31T07:36:23.017Z,24.45
2018-05-31T07:37:23.003Z,24.39
2018-05-31T07:38:22.975Z,24.47
2018-05-31T07:39:22.954Z,24.42
2018-05-31T07:40:22.922Z,24.60
2018-05-31T07:41:22.909Z,24.53
2018-05-31T07:42:22.885Z,24.55
2018-05-31T07:43:22.855Z,24.61
2018-05-31T07:44:22.890Z,24.61
2018-05-31T07:45:22.811Z,24.70
2018-05-31T07:46:22.797Z,24.78
2018-05-31T07:47:22.774Z,24.85
2018-05-31T07:48:22.770Z,24.78
2018-05-31T07:49:22.723Z,24.95
2018-05-31T07:50:22.706Z,24.85
2018-05-31T07:51:22.730Z,24.98
2018-05-31T07:52:22.656Z,24.91
2018-05-31T07:53:22.643Z,24.93
2018-05-31T07:54:22.617Z,25.06
2018-05-31T07:55:22.591Z,24.98
2018-05-31T07:56:22.571Z,25.07
2018-05-31T07:57:22.560Z,25.16
2018-05-31T07:58:22.588Z,25.22
2018-05-31T07:59:22.509Z,25.21
2018-05-31T08:00:22.495Z,25.23
2018-05-31T08:01:22.460Z,25.25
2018-05-31T08:02:22.453Z,25.26
2018-05-31T08:03:22.437Z,25.25
2018-05-31T08:04:22.422Z,25.16
2018-05-31T08:05:22.397Z,25.17
2018-05-31T08:06:22.369Z,25.14
2018-05-31T08:07:22.342Z,25.17
2018-05-31T08:08:22.334Z,25.21
2018-05-31T08:09:22.309Z,25.23
2018-05-31T08:10:22.286Z,25.26
2018-05-31T08:11:22.312Z,25.31
2018-05-31T08:12:22.243Z,25.46
2018-05-31T08:13:22.226Z,25.55
2018-05-31T08:14:22.195Z,25.59
2018-05-31T08:15:22.172Z,25.62
2018-05-31T08:16:22.159Z,25.44
2018-05-31T08:17:22.125Z,25.40
2018-05-31T08:18:22.116Z,25.28
2018-05-31T08:19:22.069Z,25.33
2018-05-31T08:20:22.052Z,25.44
2018-05-31T08:21:22.028Z,25.55
2018-05-31T08:22:22.014Z,25.68
2018-05-31T08:23:21.985Z,25.66
2018-05-31T08:24:21.961Z,25.62
2018-05-31T08:25:21.946Z,25.66
2018-05-31T08:26:21.916Z,25.62
2018-05-31T08:27:21.896Z,25.65
2018-05-31T08:28:21.920Z,25.73
2018-05-31T08:29:21.861Z,25.81
2018-05-31T08:30:21.829Z,25.85
2018-05-31T08:31:21.853Z,25.87
2018-05-31T08:32:21.795Z,25.84
2018-05-31T08:33:21.770Z,25.87
2018-05-31T08:34:21.764Z,25.72
2018-05-31T08:35:21.741Z,25.72
2018-05-31T08:36:21.719Z,25.58
2018-05-31T08:37:21.688Z,25.55
2018-05-31T08:38:21.685Z,25.69
2018-05-31T08:39:21.656Z,25.66
2018-05-31T08:40:21.640Z,25.77
2018-05-31T08:41:21.628Z,25.83
2018-05-31T08:42:21.612Z,25.69
2018-05-31T08:43:21.558Z,25.84
2018-05-31T08:44:21.553Z,25.85
2018-05-31T08:45:21.536Z,25.72
2018-05-31T08:46:21.520Z,25.72
2018-05-31T08:47:21.488Z,25.70
2018-05-31T08:48:21.473Z,25.81
2018-05-31T08:49:21.450Z,25.88
2018-05-31T08:50:21.414Z,25.91
2018-05-31T08:51:21.397Z,25.91
2018-05-31T08:52:21.388Z,25.98
2018-05-31T08:53:21.347Z,26.02
2018-05-31T08:54:21.337Z,26.06
2018-05-31T08:55:21.324Z,26.13
2018-05-31T08:56:21.294Z,26.22
2018-05-31T08:57:21.306Z,26.26
2018-05-31T08:58:21.269Z,26.37
2018-05-31T08:59:21.212Z,26.47
2018-05-31T09:00:21.196Z,26.53
2018-05-31T09:01:21.170Z,26.63
2018-05-31T09:02:21.242Z,26.77
2018-05-31T09:03:21.137Z,26.81
2018-05-31T09:04:21.111Z,26.84
2018-05-31T09:05:22.076Z,26.83
2018-05-31T09:06:21.072Z,26.73
2018-05-31T09:07:21.042Z,26.77
2018-05-31T09:08:21.029Z,26.81
2018-05-31T09:09:21.013Z,26.90
2018-05-31T09:10:20.981Z,26.95
2018-05-31T09:11:20.965Z,27.10
2018-05-31T09:12:20.936Z,27.00
2018-05-31T09:13:20.924Z,26.89
2018-05-31T09:14:20.900Z,26.84
2018-05-31T09:15:20.889Z,26.96
2018-05-31T09:16:20.854Z,26.89
2018-05-31T09:17:20.890Z,27.02
2018-05-31T09:18:20.816Z,27.05
2018-05-31T09:19:20.800Z,27.11
2018-05-31T09:20:20.773Z,27.22
2018-05-31T09:21:20.754Z,27.03
2018-05-31T09:22:20.732Z,27.07
2018-05-31T09:23:20.715Z,27.17
2018-05-31T09:24:20.691Z,27.17
2018-05-31T09:25:20.668Z,27.12
2018-05-31T09:26:20.667Z,27.17
2018-05-31T09:27:20.634Z,27.26
2018-05-31T09:28:20.664Z,27.40
2018-05-31T09:29:20.586Z,27.36
2018-05-31T09:30:20.570Z,27.33
2018-05-31T09:31:20.548Z,27.32
2018-05-31T09:32:20.530Z,27.26
2018-05-31T09:33:20.501Z,27.14
2018-05-31T09:34:20.482Z,27.11
2018-05-31T09:35:20.466Z,27.21
2018-05-31T09:36:20.445Z,27.17
2018-05-31T09:37:20.421Z,27.22
2018-05-31T09:38:20.401Z,27.05
2018-05-31T09:39:20.387Z,26.88
2018-05-31T09:40:20.363Z,26.83
2018-05-31T09:41:20.343Z,26.74
2018-05-31T09:42:20.319Z,26.70
2018-05-31T09:43:20.306Z,26.74
2018-05-31T09:44:20.274Z,26.63
2018-05-31T09:45:20.257Z,26.81
2018-05-31T09:46:20.239Z,26.92
2018-05-31T09:47:20.222Z,27.15
2018-05-31T09:48:20.191Z,27.27
2018-05-31T09:49:20.182Z,27.37
2018-05-31T09:50:20.152Z,27.49
2018-05-31T09:51:20.145Z,27.59
2018-05-31T09:52:20.121Z,27.80
2018-05-31T09:53:20.095Z,27.75
2018-05-31T09:54:20.075Z,27.86
2018-05-31T09:55:20.058Z,27.77
2018-05-31T09:56:20.030Z,27.92
2018-05-31T09:57:20.020Z,27.95
2018-05-31T09:58:19.991Z,28.01
2018-05-31T09:59:19.973Z,28.05
2018-05-31T10:00:19.955Z,28.25
2018-05-31T10:01:19.931Z,28.25
2018-05-31T10:02:19.914Z,28.37
2018-05-31T10:03:19.894Z,28.20
2018-05-31T10:04:19.881Z,28.19
2018-05-31T10:05:19.892Z,28.00
2018-05-31T10:06:19.829Z,28.04
2018-05-31T10:07:19.814Z,28.01
2018-05-31T10:08:19.789Z,28.01
2018-05-31T10:09:19.775Z,28.12
2018-05-31T10:10:19.749Z,28.20
2018-05-31T10:11:19.735Z,28.20
2018-05-31T10:12:19.710Z,28.25
2018-05-31T10:13:19.685Z,28.04
2018-05-31T10:14:19.675Z,27.89
2018-05-31T10:15:19.656Z,27.98
2018-05-31T10:16:19.632Z,27.93
2018-05-31T10:17:19.608Z,27.95
2018-05-31T10:18:19.586Z,28.01
2018-05-31T10:19:19.568Z,28.02
2018-05-31T10:20:19.562Z,28.19
2018-05-31T10:21:19.528Z,28.22
2018-05-31T10:22:19.508Z,28.32
2018-05-31T10:23:19.495Z,28.37
2018-05-31T10:24:19.467Z,28.30
2018-05-31T10:25:19.452Z,28.35
2018-05-31T10:26:19.435Z,28.38
2018-05-31T10:27:19.406Z,28.37
2018-05-31T10:28:19.388Z,28.32
2018-05-31T10:29:19.374Z,28.37
2018-05-31T10:30:19.351Z,28.29
2018-05-31T10:31:19.328Z,28.32
2018-05-31T10:32:19.315Z,28.33
2018-05-31T10:33:19.290Z,28.27
2018-05-31T10:34:19.268Z,28.44
2018-05-31T10:35:19.246Z,28.42
2018-05-31T10:36:19.229Z,28.30
2018-05-31T10:37:19.212Z,28.33
2018-05-31T10:38:19.188Z,28.41
2018-05-31T10:39:19.173Z,28.39
2018-05-31T10:40:19.152Z,28.45
2018-05-31T10:41:19.129Z,28.41
2018-05-31T10:42:19.115Z,28.38
2018-05-31T10:43:19.090Z,28.25
2018-05-31T10:44:19.075Z,28.07
2018-05-31T10:45:19.047Z,27.89
2018-05-31T10:46:19.055Z,27.82
2018-05-31T10:47:19.006Z,27.90
2018-05-31T10:48:18.995Z,27.77
2018-05-31T10:49:18.976Z,27.77
2018-05-31T10:50:18.945Z,27.73
2018-05-31T10:51:18.929Z,27.85
2018-05-31T10:52:18.910Z,27.73
2018-05-31T10:53:18.889Z,27.86
2018-05-31T10:54:18.864Z,27.92
2018-05-31T10:55:18.855Z,27.73
2018-05-31T10:56:18.827Z,27.71
2018-05-31T10:57:18.807Z,27.58
2018-05-31T10:58:18.792Z,27.44
2018-05-31T10:59:18.782Z,27.26
2018-05-31T11:00:18.747Z,27.22
2018-05-31T11:01:18.724Z,27.12
2018-05-31T11:02:18.703Z,27.22
2018-05-31T11:03:18.687Z,27.30
2018-05-31T11:04:18.676Z,27.30
2018-05-31T11:05:18.643Z,27.44
2018-05-31T11:06:18.627Z,27.32
2018-05-31T11:07:18.605Z,27.30
2018-05-31T11:08:18.584Z,27.42
2018-05-31T11:09:18.559Z,27.33
2018-05-31T11:10:18.537Z,27.33
2018-05-31T11:11:18.519Z,27.39
2018-05-31T11:12:18.494Z,27.29
2018-05-31T11:13:18.483Z,27.33
2018-05-31T11:14:18.458Z,27.35
2018-05-31T11:15:18.435Z,27.29
2018-05-31T11:16:18.418Z,27.36
2018-05-31T11:17:18.389Z,27.45
2018-05-31T11:18:18.375Z,27.51
2018-05-31T11:19:18.353Z,27.49
2018-05-31T11:20:18.328Z,27.60
2018-05-31T11:21:18.315Z,27.59
2018-05-31T11:22:18.291Z,27.55
2018-05-31T11:23:18.268Z,27.49
2018-05-31T11:24:18.245Z,27.47
2018-05-31T11:25:18.235Z,27.40
2018-05-31T11:26:18.206Z,27.44
2018-05-31T11:27:18.191Z,27.42
2018-05-31T11:28:18.168Z,27.49
2018-05-31T11:29:18.206Z,27.54
2018-05-31T11:30:18.120Z,27.52
2018-05-31T11:31:18.105Z,27.49
2018-05-31T11:32:18.085Z,27.49
2018-05-31T11:33:18.057Z,27.51
2018-05-31T11:34:18.041Z,27.47
2018-05-31T11:35:18.015Z,27.64
2018-05-31T11:36:17.995Z,27.55
2018-05-31T11:37:17.977Z,27.60
2018-05-31T11:38:17.955Z,27.63
2018-05-31T11:39:17.934Z,27.54
2018-05-31T11:40:17.911Z,27.60
2018-05-31T11:41:17.894Z,27.65
2018-05-31T11:42:17.877Z,27.52
2018-05-31T11:43:17.849Z,27.52
2018-05-31T11:44:17.824Z,27.54
2018-05-31T11:45:17.813Z,27.49
2018-05-31T11:46:17.787Z,27.54
2018-05-31T11:47:17.766Z,27.54
2018-05-31T11:48:17.743Z,27.48
2018-05-31T11:49:17.724Z,27.52
2018-05-31T11:50:17.707Z,27.49
2018-05-31T11:51:17.683Z,27.45
2018-05-31T11:52:17.657Z,27.54
2018-05-31T11:53:17.637Z,27.59
2018-05-31T11:54:17.618Z,27.63
2018-05-31T11:55:17.595Z,27.65
2018-05-31T11:56:17.616Z,27.64
2018-05-31T11:57:17.588Z,27.65
2018-05-31T11:58:17.535Z,27.75
2018-05-31T11:59:17.510Z,27.73
2018-05-31T12:00:17.492Z,27.80
2018-05-31T12:01:17.475Z,27.86
2018-05-31T12:02:17.449Z,27.74
2018-05-31T12:03:17.433Z,27.77
2018-05-31T12:04:17.447Z,27.75
2018-05-31T12:05:17.383Z,27.73
2018-05-31T12:06:17.568Z,27.67
2018-05-31T12:07:17.349Z,27.67
2018-05-31T12:08:17.401Z,27.77
2018-05-31T12:09:17.304Z,27.70
2018-05-31T12:10:17.286Z,27.89
2018-05-31T12:11:17.258Z,27.82
2018-05-31T12:12:17.299Z,27.77
2018-05-31T12:13:17.222Z,27.71
2018-05-31T12:14:17.202Z,27.75
2018-05-31T12:15:17.173Z,27.87
2018-05-31T12:16:17.158Z,27.89
2018-05-31T12:17:17.140Z,27.90
2018-05-31T12:18:17.110Z,27.73
2018-05-31T12:19:17.098Z,27.77
2018-05-31T12:20:17.071Z,27.71
2018-05-31T12:21:17.052Z,27.68
2018-05-31T12:22:17.036Z,27.63
2018-05-31T12:23:17.016Z,27.58
2018-05-31T12:24:16.992Z,27.54
2018-05-31T12:25:16.967Z,27.63
2018-05-31T12:26:16.942Z,27.73
2018-05-31T12:27:16.930Z,27.64
2018-05-31T12:28:16.908Z,27.68
2018-05-31T12:29:16.883Z,27.59
2018-05-31T12:30:16.861Z,27.60
2018-05-31T12:31:16.861Z,27.67
2018-05-31T12:32:16.845Z,27.75
2018-05-31T12:33:16.803Z,27.73
2018-05-31T12:34:16.785Z,27.75
2018-05-31T12:35:16.760Z,27.82
2018-05-31T12:36:16.738Z,27.90
2018-05-31T12:37:16.723Z,27.87
2018-05-31T12:38:16.702Z,27.83
2018-05-31T12:39:16.681Z,27.73
2018-05-31T12:40:16.664Z,27.77
2018-05-31T12:41:16.633Z,27.83
2018-05-31T12:42:16.616Z,27.86
2018-05-31T12:43:16.598Z,27.83
2018-05-31T12:44:16.596Z,27.85
2018-05-31T12:45:16.555Z,27.87
2018-05-31T12:46:16.546Z,28.01
2018-05-31T12:47:16.515Z,28.08
2018-05-31T12:48:16.492Z,28.20
2018-05-31T12:49:16.478Z,28.27
2018-05-31T12:50:16.455Z,28.17
2018-05-31T12:51:16.437Z,27.96
2018-05-31T12:52:16.417Z,27.90